createdAt,value
2018-07-21T00:01:08.026Z,4.37
2018-07-21T00:03:34.938Z,4.50
2018-07-21T00:06:01.941Z,5.43
2018-07-21T00:08:29.324Z,4.80
2018-07-21T00:10:56.437Z,4.63
2018-07-21T00:13:23.440Z,4.97
2018-07-21T00:15:50.396Z,4.83
2018-07-21T00:18:17.292Z,5.60
2018-07-21T00:20:44.180Z,5.10
2018-07-21T00:23:11.092Z,4.97
2018-07-21T00:25:39.025Z,4.90
2018-07-21T00:28:06.284Z,5.40
2018-07-21T00:30:33.850Z,5.57
2018-07-21T00:33:01.310Z,5.10
2018-07-21T00:35:29.188Z,5.13
2018-07-21T00:37:56.275Z,4.67
2018-07-21T00:40:23.630Z,5.37
2018-07-21T00:42:51.409Z,4.80
2018-07-21T00:45:19.075Z,4.43
2018-07-21T00:47:45.976Z,4.83
2018-07-21T00:50:12.864Z,4.73
2018-07-21T00:52:39.773Z,4.50
2018-07-21T00:55:06.745Z,4.97
2018-07-21T00:57:33.740Z,4.60
2018-07-21T01:00:00.658Z,5.47
2018-07-21T01:02:27.596Z,5.20
2018-07-21T01:04:54.512Z,5.00
2018-07-21T01:07:21.408Z,5.60
2018-07-21T01:09:48.320Z,5.27
2018-07-21T01:12:15.223Z,5.40
2018-07-21T01:14:42.124Z,6.03
2018-07-21T01:17:09.024Z,5.70
2018-07-21T01:19:35.929Z,5.00
2018-07-21T01:22:02.816Z,5.13
2018-07-21T01:24:29.760Z,5.03
2018-07-21T01:26:56.656Z,5.40
2018-07-21T01:29:24.386Z,5.77
2018-07-21T01:31:51.296Z,6.43
2018-07-21T01:34:18.204Z,6.70
2018-07-21T01:36:45.093Z,6.53
2018-07-21T01:39:12.053Z,6.43
2018-07-21T01:41:39.243Z,6.73
2018-07-21T01:44:06.189Z,7.23
2018-07-21T01:46:33.114Z,6.00
2018-07-21T01:49:00.046Z,7.10
2018-07-21T01:51:26.976Z,7.70
2018-07-21T01:53:53.887Z,7.63
2018-07-21T01:56:20.804Z,7.97
2018-07-21T01:58:47.719Z,8.50
2018-07-21T02:01:14.628Z,9.30
2018-07-21T02:03:44.230Z,8.67
2018-07-21T02:06:11.121Z,8.97
2018-07-21T02:08:38.028Z,8.60
2018-07-21T02:11:04.912Z,9.30
2018-07-21T02:13:31.824Z,9.07
2018-07-21T02:15:58.696Z,8.80
2018-07-21T02:18:25.555Z,8.93
2018-07-21T02:20:52.439Z,8.63
2018-07-21T02:23:19.300Z,9.53
2018-07-21T02:25:46.183Z,9.10
2018-07-21T02:28:13.090Z,11.07
2018-07-21T02:30:39.979Z,12.83
2018-07-21T02:33:06.859Z,12.23
2018-07-21T02:35:33.764Z,12.40
2018-07-21T02:38:00.632Z,13.47
2018-07-21T02:40:27.608Z,13.07
2018-07-21T02:42:54.505Z,13.33
2018-07-21T02:45:21.420Z,13.57
2018-07-21T02:47:48.308Z,12.13
2018-07-21T02:50:15.185Z,12.27
2018-07-21T02:52:42.064Z,10.63
2018-07-21T02:55:08.961Z,10.43
2018-07-21T02:57:35.928Z,9.77
2018-07-21T03:00:02.917Z,9.50
2018-07-21T03:02:29.836Z,10.07
2018-07-21T03:04:56.736Z,10.43
2018-07-21T03:07:23.608Z,10.17
2018-07-21T03:09:50.553Z,9.73
2018-07-21T03:12:17.386Z,9.63
2018-07-21T03:14:44.298Z,9.40
2018-07-21T03:17:11.639Z,9.00
2018-07-21T03:19:38.540Z,10.10
2018-07-21T03:22:05.433Z,10.37
2018-07-21T03:24:32.325Z,9.20
2018-07-21T03:26:59.230Z,9.70
2018-07-21T03:29:26.119Z,9.90
2018-07-21T03:31:53.017Z,9.47
2018-07-21T03:34:19.903Z,9.40
2018-07-21T03:36:46.780Z,9.90
2018-07-21T03:39:13.668Z,9.87
2018-07-21T03:41:40.568Z,9.87
2018-07-21T03:44:07.447Z,9.67
2018-07-21T03:46:34.676Z,8.97
2018-07-21T03:49:01.552Z,8.20
2018-07-21T03:51:28.455Z,8.03
2018-07-21T03:53:55.348Z,7.87
2018-07-21T03:56:22.231Z,8.27
2018-07-21T03:58:49.116Z,8.33
2018-07-21T04:01:16.012Z,8.40
2018-07-21T04:03:42.905Z,8.20
2018-07-21T04:06:09.796Z,8.23
2018-07-21T04:08:36.683Z,8.17
2018-07-21T04:11:03.576Z,7.50
2018-07-21T04:13:30.448Z,8.13
2018-07-21T04:15:57.325Z,7.73
2018-07-21T04:18:24.207Z,7.40
2018-07-21T04:20:51.092Z,7.60
2018-07-21T04:23:17.981Z,8.07
2018-07-21T04:25:44.892Z,8.20
2018-07-21T04:28:11.765Z,7.67
2018-07-21T04:30:38.656Z,8.03
2018-07-21T04:33:05.551Z,7.83
2018-07-21T04:35:32.456Z,7.50
2018-07-21T04:37:59.428Z,7.90
2018-07-21T04:40:26.349Z,8.00
2018-07-21T04:42:53.236Z,7.87
2018-07-21T04:45:20.141Z,7.03
2018-07-21T04:47:47.027Z,7.03
2018-07-21T04:50:13.923Z,7.43
2018-07-21T04:52:40.804Z,7.60
2018-07-21T04:55:07.704Z,7.90
2018-07-21T04:57:34.593Z,8.10
2018-07-21T05:00:01.520Z,8.40
2018-07-21T05:02:28.421Z,7.13
2018-07-21T05:04:55.319Z,8.13
2018-07-21T05:07:22.236Z,7.60
2018-07-21T05:09:49.115Z,6.93
2018-07-21T05:12:16.021Z,6.87
2018-07-21T05:14:42.899Z,7.63
2018-07-21T05:17:09.799Z,7.23
2018-07-21T05:19:36.683Z,7.23
2018-07-21T05:22:03.593Z,7.00
2018-07-21T05:24:30.484Z,7.10
2018-07-21T05:26:57.392Z,7.33
2018-07-21T05:29:24.302Z,6.40
2018-07-21T05:31:51.193Z,6.83
2018-07-21T05:34:18.089Z,6.57
2018-07-21T05:36:44.993Z,7.00
2018-07-21T05:39:11.986Z,7.33
2018-07-21T05:41:39.432Z,6.37
2018-07-21T05:44:06.333Z,6.97
2018-07-21T05:46:33.520Z,7.53
2018-07-21T05:49:00.413Z,7.50
2018-07-21T05:51:27.319Z,6.73
2018-07-21T05:53:54.215Z,7.50
2018-07-21T05:56:21.121Z,7.80
2018-07-21T05:58:48.004Z,7.73
2018-07-21T06:01:14.908Z,6.80
2018-07-21T06:03:41.830Z,6.73
2018-07-21T06:06:08.562Z,5.77
2018-07-21T06:08:35.451Z,6.33
2018-07-21T06:11:02.403Z,5.87
2018-07-21T06:13:29.256Z,6.37
2018-07-21T06:15:56.161Z,5.87
2018-07-21T06:18:23.069Z,5.60
2018-07-21T06:20:49.947Z,6.57
2018-07-21T06:23:16.836Z,6.47
2018-07-21T06:25:43.746Z,5.47
2018-07-21T06:28:10.663Z,6.60
2018-07-21T06:30:37.541Z,6.30
2018-07-21T06:33:04.636Z,5.63
2018-07-21T06:35:31.571Z,5.20
2018-07-21T06:37:58.470Z,5.27
2018-07-21T06:40:25.468Z,5.23
2018-07-21T06:42:52.375Z,5.40
2018-07-21T06:45:19.275Z,4.90
2018-07-21T06:47:46.179Z,5.10
2018-07-21T06:50:13.076Z,4.53
2018-07-21T06:52:39.985Z,4.53
2018-07-21T06:55:10.381Z,4.90
2018-07-21T06:57:37.484Z,4.53
2018-07-21T07:00:04.509Z,4.47
2018-07-21T07:02:31.397Z,4.60
2018-07-21T07:04:58.280Z,4.10
2018-07-21T07:07:25.170Z,4.10
2018-07-21T07:09:52.080Z,4.20
2018-07-21T07:12:18.959Z,3.77
2018-07-21T07:14:45.848Z,4.00
2018-07-21T07:17:12.744Z,4.30
2018-07-21T07:19:39.627Z,3.80
2018-07-21T07:22:06.533Z,3.50
2018-07-21T07:24:33.456Z,3.80
2018-07-21T07:27:00.372Z,3.73
2018-07-21T07:29:27.248Z,3.67
2018-07-21T07:31:54.216Z,4.17
2018-07-21T07:34:21.092Z,4.07
2018-07-21T07:36:47.990Z,3.80
2018-07-21T07:39:14.896Z,3.73
2018-07-21T07:41:41.804Z,3.43
2018-07-21T07:44:08.715Z,3.77
2018-07-21T07:46:36.065Z,3.90
2018-07-21T07:49:04.580Z,3.43
2018-07-21T07:51:31.564Z,4.37
2018-07-21T07:53:58.472Z,3.60
2018-07-21T07:56:25.403Z,4.00
2018-07-21T07:58:52.313Z,3.80
2018-07-21T08:01:19.492Z,3.83
2018-07-21T08:03:46.390Z,3.83
2018-07-21T08:06:13.268Z,3.70
2018-07-21T08:08:40.175Z,4.03
2018-07-21T08:11:07.156Z,3.80
2018-07-21T08:13:34.063Z,3.83
2018-07-21T08:16:00.972Z,3.60
2018-07-21T08:18:27.868Z,3.73
2018-07-21T08:20:55.600Z,4.03
2018-07-21T08:23:22.498Z,3.43
2018-07-21T08:25:49.402Z,3.50
2018-07-21T08:28:16.295Z,3.57
2018-07-21T08:30:43.188Z,3.63
2018-07-21T08:33:10.088Z,3.67
2018-07-21T08:35:36.988Z,3.43
2018-07-21T08:38:04.264Z,3.90
2018-07-21T08:40:31.153Z,3.87
2018-07-21T08:42:58.045Z,3.47
2018-07-21T08:45:24.933Z,3.80
2018-07-21T08:47:51.867Z,3.47
2018-07-21T08:50:18.779Z,4.03
2018-07-21T08:52:45.687Z,3.60
2018-07-21T08:55:12.576Z,3.67
2018-07-21T08:57:39.477Z,3.60
2018-07-21T09:00:06.388Z,3.63
2018-07-21T09:02:33.302Z,3.70
2018-07-21T09:05:00.233Z,3.83
2018-07-21T09:07:27.119Z,4.07
2018-07-21T09:09:54.036Z,3.50
2018-07-21T09:12:20.933Z,3.80
2018-07-21T09:14:47.832Z,3.40
2018-07-21T09:17:18.411Z,3.70
2018-07-21T09:19:45.640Z,3.57
2018-07-21T09:22:12.528Z,3.37
2018-07-21T09:24:39.424Z,4.10
2018-07-21T09:27:06.311Z,3.50
2018-07-21T09:29:33.196Z,3.50
2018-07-21T09:32:00.113Z,3.60
2018-07-21T09:34:26.995Z,3.90
2018-07-21T09:36:53.884Z,3.50
2018-07-21T09:39:20.785Z,3.57
2018-07-21T09:41:47.668Z,3.57
2018-07-21T09:44:14.576Z,3.50
2018-07-21T09:46:41.451Z,3.57
2018-07-21T09:49:08.409Z,3.30
2018-07-21T09:51:35.284Z,3.57
2018-07-21T09:54:02.188Z,3.40
2018-07-21T09:56:29.069Z,4.23
2018-07-21T09:58:55.968Z,3.97
2018-07-21T10:01:22.882Z,3.80
2018-07-21T10:03:49.783Z,3.80
2018-07-21T10:06:16.676Z,3.53
2018-07-21T10:08:43.599Z,3.97
2018-07-21T10:11:10.480Z,4.20
2018-07-21T10:13:37.560Z,3.90
2018-07-21T10:16:04.623Z,3.40
2018-07-21T10:18:31.515Z,3.77
2018-07-21T10:20:58.651Z,3.57
2018-07-21T10:23:26.366Z,3.83
2018-07-21T10:25:59.088Z,4.07
2018-07-21T10:28:31.872Z,3.90
2018-07-21T10:30:58.817Z,3.67
2018-07-21T10:33:25.953Z,3.90
2018-07-21T10:35:52.985Z,3.90
2018-07-21T10:38:19.988Z,3.80
2018-07-21T10:40:47.040Z,3.60
2018-07-21T10:43:13.917Z,3.90
2018-07-21T10:45:40.932Z,3.53
2018-07-21T10:48:07.936Z,4.03
2018-07-21T10:50:34.837Z,4.07
2018-07-21T10:53:01.804Z,3.70
2018-07-21T10:55:28.821Z,3.87
2018-07-21T10:57:55.826Z,3.70
2018-07-21T11:00:23.012Z,3.90
2018-07-21T11:02:49.871Z,3.90
2018-07-21T11:05:16.768Z,4.10
2018-07-21T11:07:43.655Z,3.60
2018-07-21T11:10:10.579Z,3.83
2018-07-21T11:12:37.478Z,3.87
2018-07-21T11:15:05.778Z,3.80
2018-07-21T11:17:32.728Z,3.87
2018-07-21T11:19:59.681Z,4.07
2018-07-21T11:22:26.696Z,3.90
2018-07-21T11:24:53.605Z,4.20
2018-07-21T11:27:20.596Z,4.23
2018-07-21T11:29:47.501Z,3.83
2018-07-21T11:32:14.392Z,4.03
2018-07-21T11:34:41.279Z,4.07
2018-07-21T11:37:08.169Z,3.77
2018-07-21T11:39:35.356Z,4.10
2018-07-21T11:42:02.304Z,3.80
2018-07-21T11:44:29.322Z,4.23
2018-07-21T11:46:56.168Z,3.73
2018-07-21T11:49:23.081Z,4.37
2018-07-21T11:51:50.003Z,4.23
2018-07-21T11:54:16.887Z,4.17
2018-07-21T11:56:43.791Z,4.10
2018-07-21T11:59:10.678Z,4.20
2018-07-21T12:01:37.583Z,4.67
2018-07-21T12:04:04.488Z,4.23
2018-07-21T12:06:31.384Z,4.50
2018-07-21T12:08:58.317Z,4.43
2018-07-21T12:11:25.205Z,4.73
2018-07-21T12:13:52.091Z,4.70
2018-07-21T12:16:18.986Z,4.07
2018-07-21T12:18:45.891Z,4.20
2018-07-21T12:21:12.823Z,4.40
2018-07-21T12:23:39.710Z,4.17
2018-07-21T12:26:06.672Z,4.03
2018-07-21T12:28:33.572Z,4.10
2018-07-21T12:31:00.474Z,3.70
2018-07-21T12:33:27.351Z,4.50
2018-07-21T12:35:54.247Z,4.37
2018-07-21T12:38:21.122Z,4.27
2018-07-21T12:40:48.025Z,4.30
2018-07-21T12:43:14.928Z,4.17
2018-07-21T12:45:41.817Z,4.47
2018-07-21T12:48:08.692Z,4.10
2018-07-21T12:50:35.614Z,4.07
2018-07-21T12:53:02.636Z,4.70
2018-07-21T12:55:29.531Z,4.40
2018-07-21T12:57:56.428Z,4.53
2018-07-21T13:00:23.352Z,4.80
2018-07-21T13:02:50.311Z,4.40
2018-07-21T13:05:17.211Z,4.53
2018-07-21T13:07:44.084Z,4.40
2018-07-21T13:10:11.014Z,4.40
2018-07-21T13:12:37.911Z,4.13
2018-07-21T13:15:05.007Z,4.80
2018-07-21T13:17:31.992Z,4.60
2018-07-21T13:19:58.903Z,4.43
2018-07-21T13:22:25.797Z,4.30
2018-07-21T13:24:52.700Z,4.43
2018-07-21T13:27:19.700Z,4.23
2018-07-21T13:29:46.628Z,4.40
2018-07-21T13:32:13.543Z,4.30
2018-07-21T13:34:40.433Z,4.37
2018-07-21T13:37:07.500Z,4.77
2018-07-21T13:39:34.352Z,4.93
2018-07-21T13:42:01.273Z,4.80
2018-07-21T13:44:28.157Z,4.20
2018-07-21T13:46:55.054Z,4.20
2018-07-21T13:49:21.990Z,4.43
2018-07-21T13:51:48.951Z,4.77
2018-07-21T13:54:15.857Z,5.00
2018-07-21T13:56:42.779Z,4.47
2018-07-21T13:59:09.663Z,4.17
2018-07-21T14:01:36.615Z,4.60
2018-07-21T14:04:03.560Z,4.23
2018-07-21T14:06:30.460Z,4.40
2018-07-21T14:08:57.336Z,4.27
2018-07-21T14:11:24.232Z,4.70
2018-07-21T14:13:51.124Z,4.33
2018-07-21T14:16:18.172Z,4.60
2018-07-21T14:18:45.076Z,4.27
2018-07-21T14:21:12.119Z,4.23
2018-07-21T14:23:39.216Z,4.20
2018-07-21T14:26:06.135Z,4.40
2018-07-21T14:28:33.006Z,4.83
2018-07-21T14:31:00.399Z,4.60
2018-07-21T14:33:27.455Z,4.00
2018-07-21T14:35:54.373Z,4.07
2018-07-21T14:38:21.245Z,4.70
2018-07-21T14:40:48.156Z,4.33
2018-07-21T14:43:15.047Z,4.83
2018-07-21T14:45:41.941Z,4.17
2018-07-21T14:48:08.843Z,4.43
2018-07-21T14:50:35.738Z,4.40
2018-07-21T14:53:02.644Z,4.60
2018-07-21T14:55:29.551Z,4.50
2018-07-21T14:57:56.443Z,4.43
2018-07-21T15:00:23.347Z,4.30
2018-07-21T15:02:50.245Z,4.80
2018-07-21T15:05:17.149Z,4.60
2018-07-21T15:07:44.096Z,4.73
2018-07-21T15:10:11.309Z,5.10
2018-07-21T15:12:38.402Z,4.73
2018-07-21T15:15:05.895Z,4.53
2018-07-21T15:17:32.971Z,4.33
2018-07-21T15:20:00.200Z,4.97
2018-07-21T15:22:27.318Z,4.70
2018-07-21T15:24:54.537Z,5.07
2018-07-21T15:27:21.643Z,4.60
2018-07-21T15:29:48.684Z,4.83
2018-07-21T15:32:15.830Z,4.50
2018-07-21T15:34:43.008Z,5.10
2018-07-21T15:37:10.026Z,5.07
2018-07-21T15:39:37.148Z,5.23
2018-07-21T15:42:04.586Z,4.30
2018-07-21T15:44:31.765Z,4.60
2018-07-21T15:46:58.677Z,4.30
2018-07-21T15:49:25.572Z,4.50
2018-07-21T15:51:52.448Z,4.83
2018-07-21T15:54:19.334Z,4.83
2018-07-21T15:56:46.207Z,4.90
2018-07-21T15:59:13.112Z,4.60
2018-07-21T16:01:40.016Z,5.17
2018-07-21T16:04:06.932Z,4.87
2018-07-21T16:06:33.836Z,5.20
2018-07-21T16:09:01.248Z,4.47
2018-07-21T16:11:28.128Z,5.03
2018-07-21T16:13:55.033Z,4.83
2018-07-21T16:16:21.915Z,4.97
2018-07-21T16:18:48.796Z,4.73
2018-07-21T16:21:15.851Z,4.53
2018-07-21T16:23:42.723Z,4.77
2018-07-21T16:26:09.614Z,4.90
2018-07-21T16:28:36.814Z,4.90
2018-07-21T16:31:04.060Z,4.90
2018-07-21T16:33:30.983Z,4.87
2018-07-21T16:35:57.877Z,4.97
2018-07-21T16:38:24.785Z,4.47
2018-07-21T16:40:51.698Z,4.60
2018-07-21T16:43:18.567Z,4.90
2018-07-21T16:45:45.520Z,4.87
2018-07-21T16:48:12.409Z,4.70
2018-07-21T16:50:39.309Z,5.43
2018-07-21T16:53:06.213Z,5.40
2018-07-21T16:55:33.108Z,5.53
2018-07-21T16:58:00.124Z,6.77
2018-07-21T17:00:27.236Z,6.30
2018-07-21T17:02:54.109Z,6.00
2018-07-21T17:05:21.029Z,5.10
2018-07-21T17:07:47.985Z,6.73
2018-07-21T17:10:15.074Z,5.30
2018-07-21T17:12:42.336Z,5.47
2018-07-21T17:15:09.234Z,5.20
2018-07-21T17:17:36.399Z,5.13
2018-07-21T17:20:03.617Z,5.77
2018-07-21T17:22:30.533Z,4.80
2018-07-21T17:24:57.460Z,5.57
2018-07-21T17:27:24.336Z,5.23
2018-07-21T17:29:52.291Z,5.03
2018-07-21T17:32:19.149Z,5.30
2018-07-21T17:34:46.371Z,5.07
2018-07-21T17:37:13.395Z,4.90
2018-07-21T17:39:40.531Z,5.20
2018-07-21T17:42:08.930Z,4.70
2018-07-21T17:44:36.213Z,5.07
2018-07-21T17:47:03.368Z,5.57
2018-07-21T17:49:30.643Z,5.10
2018-07-21T17:51:57.973Z,4.93
2018-07-21T17:54:25.222Z,5.00
2018-07-21T17:56:52.348Z,5.30
2018-07-21T17:59:19.908Z,5.23
2018-07-21T18:01:53.904Z,5.30
2018-07-21T18:04:21.114Z,4.93
2018-07-21T18:06:48.458Z,4.80
2018-07-21T18:09:15.505Z,5.00
2018-07-21T18:11:42.559Z,5.10
2018-07-21T18:14:09.801Z,5.90
2018-07-21T18:16:36.684Z,5.77
2018-07-21T18:19:03.560Z,5.67
2018-07-21T18:21:30.473Z,5.70
2018-07-21T18:23:57.348Z,5.33
2018-07-21T18:26:24.228Z,5.60
2018-07-21T18:28:51.132Z,5.50
2018-07-21T18:31:18.020Z,6.00
2018-07-21T18:33:44.925Z,6.20
2018-07-21T18:36:11.826Z,6.63
2018-07-21T18:38:38.935Z,6.00
2018-07-21T18:41:06.688Z,5.67
2018-07-21T18:43:33.607Z,5.70
2018-07-21T18:46:00.484Z,5.50
2018-07-21T18:48:27.383Z,5.20
2018-07-21T18:50:54.269Z,5.27
2018-07-21T18:53:21.163Z,4.93
2018-07-21T18:55:48.034Z,5.37
2018-07-21T18:58:14.924Z,5.33
2018-07-21T19:00:41.822Z,5.00
2018-07-21T19:03:08.720Z,4.83
2018-07-21T19:05:35.612Z,4.80
2018-07-21T19:08:02.496Z,4.80
2018-07-21T19:10:29.372Z,4.77
2018-07-21T19:12:56.248Z,4.87
2018-07-21T19:15:29.031Z,5.40
2018-07-21T19:17:55.924Z,4.80
2018-07-21T19:20:28.501Z,5.00
2018-07-21T19:22:55.396Z,5.00
2018-07-21T19:25:28.089Z,4.83
2018-07-21T19:27:54.988Z,5.03
2018-07-21T19:30:21.867Z,5.27
2018-07-21T19:32:54.508Z,4.93
2018-07-21T19:35:21.381Z,5.00
2018-07-21T19:37:49.012Z,4.87
2018-07-21T19:40:16.987Z,4.70
2018-07-21T19:42:43.949Z,5.10
2018-07-21T19:45:10.956Z,4.83
2018-07-21T19:47:37.881Z,4.63
2018-07-21T19:50:04.975Z,5.13
2018-07-21T19:52:31.848Z,4.63
2018-07-21T19:54:58.739Z,4.80
2018-07-21T19:57:25.612Z,5.30
2018-07-21T19:59:52.511Z,5.17
2018-07-21T20:02:19.368Z,4.60
2018-07-21T20:04:46.295Z,5.00
2018-07-21T20:07:13.196Z,4.83
2018-07-21T20:09:40.064Z,4.90
2018-07-21T20:12:06.948Z,4.93
2018-07-21T20:14:33.836Z,5.03
2018-07-21T20:17:00.740Z,5.03
2018-07-21T20:19:27.624Z,5.30
2018-07-21T20:21:54.503Z,5.50
2018-07-21T20:24:21.384Z,5.20
2018-07-21T20:26:48.265Z,5.10
2018-07-21T20:29:15.145Z,5.40
2018-07-21T20:31:42.037Z,4.87
2018-07-21T20:34:08.937Z,5.10
2018-07-21T20:36:35.796Z,4.97
2018-07-21T20:39:03.325Z,5.40
2018-07-21T20:41:30.192Z,5.20
2018-07-21T20:43:57.067Z,5.80
2018-07-21T20:46:23.953Z,5.40
2018-07-21T20:48:50.864Z,5.10
2018-07-21T20:51:17.732Z,4.87
2018-07-21T20:53:44.620Z,5.53
2018-07-21T20:56:11.497Z,5.30
2018-07-21T20:58:38.413Z,5.67
2018-07-21T21:01:05.404Z,5.33
2018-07-21T21:03:32.300Z,6.00
2018-07-21T21:05:59.192Z,5.37
2018-07-21T21:08:26.064Z,4.80
2018-07-21T21:10:52.972Z,5.00
2018-07-21T21:13:19.896Z,5.33
2018-07-21T21:15:46.811Z,5.77
2018-07-21T21:18:13.692Z,5.30
2018-07-21T21:20:40.593Z,5.23
2018-07-21T21:23:07.481Z,5.13
2018-07-21T21:25:34.441Z,5.87
2018-07-21T21:28:01.353Z,5.40
2018-07-21T21:30:28.244Z,5.57
2018-07-21T21:32:55.153Z,5.90
2018-07-21T21:35:22.040Z,5.17
2018-07-21T21:37:48.920Z,5.27
2018-07-21T21:40:15.828Z,5.30
2018-07-21T21:42:42.817Z,5.10
2018-07-21T21:45:09.668Z,5.37
2018-07-21T21:47:36.543Z,5.00
2018-07-21T21:50:03.615Z,5.27
2018-07-21T21:52:30.517Z,5.27
2018-07-21T21:54:57.464Z,5.20
2018-07-21T21:57:24.348Z,4.90
2018-07-21T21:59:51.271Z,5.23
2018-07-21T22:02:18.207Z,5.33
2018-07-21T22:04:45.213Z,5.80
2018-07-21T22:07:12.104Z,5.70
2018-07-21T22:09:38.980Z,5.53
2018-07-21T22:12:05.875Z,5.53
2018-07-21T22:14:32.794Z,5.60
2018-07-21T22:16:59.699Z,5.80
2018-07-21T22:19:26.592Z,5.40
2018-07-21T22:21:53.578Z,5.17
2018-07-21T22:24:20.466Z,5.53
2018-07-21T22:26:47.367Z,4.83
2018-07-21T22:29:14.256Z,5.23
2018-07-21T22:31:41.162Z,5.03
2018-07-21T22:34:08.074Z,5.00
2018-07-21T22:36:35.166Z,4.90
2018-07-21T22:39:02.174Z,5.93
2018-07-21T22:41:29.060Z,6.07
2018-07-21T22:43:55.968Z,5.40
2018-07-21T22:46:22.880Z,5.50
2018-07-21T22:48:49.764Z,5.20
2018-07-21T22:51:16.675Z,5.30
2018-07-21T22:53:43.547Z,5.00
2018-07-21T22:56:10.429Z,5.80
2018-07-21T22:58:37.378Z,5.00
2018-07-21T23:01:04.479Z,5.00
2018-07-21T23:03:31.368Z,6.00
2018-07-21T23:05:58.280Z,5.90
2018-07-21T23:08:25.183Z,5.60
2018-07-21T23:10:52.101Z,5.60
2018-07-21T23:13:19.080Z,4.90
2018-07-21T23:15:45.996Z,5.67
2018-07-21T23:18:12.896Z,5.43
2018-07-21T23:20:40.487Z,5.30
2018-07-21T23:23:07.371Z,5.70
2018-07-21T23:25:34.300Z,5.47
2018-07-21T23:28:01.179Z,5.67
2018-07-21T23:30:28.088Z,5.37
2018-07-21T23:32:54.996Z,5.70
2018-07-21T23:35:21.887Z,6.23
2018-07-21T23:37:48.801Z,6.20
2018-07-21T23:40:15.684Z,5.60
2018-07-21T23:42:42.588Z,5.30
2018-07-21T23:45:09.497Z,5.27
2018-07-21T23:47:36.395Z,5.83
2018-07-21T23:50:03.303Z,6.40
2018-07-21T23:52:30.197Z,6.23
2018-07-21T23:54:57.095Z,6.00
2018-07-21T23:57:23.980Z,5.67
2018-07-21T23:59:50.856Z,6.43
